createdAt,value
2023-05-08T00:01:25.712Z,10.35
2023-05-08T00:03:55.149Z,10.36
2023-05-08T00:06:24.053Z,10.34
2023-05-08T00:08:52.393Z,10.33
2023-05-08T00:11:21.199Z,10.33
2023-05-08T00:13:49.469Z,10.31
2023-05-08T00:16:17.803Z,10.29
2023-05-08T00:18:47.165Z,10.27
2023-05-08T00:21:15.438Z,10.27
2023-05-08T00:23:43.734Z,10.25
2023-05-08T00:26:12.267Z,10.24
2023-05-08T00:28:40.408Z,10.20
2023-05-08T00:31:08.863Z,10.17
2023-05-08T00:33:37.474Z,10.10
2023-05-08T00:36:06.174Z,10.09
2023-05-08T00:38:36.328Z,10.10
2023-05-08T00:41:04.666Z,10.12
2023-05-08T00:43:33.766Z,10.12
2023-05-08T00:46:02.469Z,10.13
2023-05-08T00:48:34.394Z,10.16
2023-05-08T00:51:06.186Z,10.18
2023-05-08T00:53:39.036Z,10.21
2023-05-08T00:56:12.162Z,10.22
2023-05-08T00:58:41.270Z,10.23
2023-05-08T01:01:10.734Z,10.20
2023-05-08T01:03:39.872Z,10.15
2023-05-08T01:06:08.676Z,10.12
2023-05-08T01:08:36.837Z,10.12
2023-05-08T01:11:49.955Z,10.12
2023-05-08T01:14:36.434Z,10.08
2023-05-08T01:17:04.952Z,10.05
2023-05-08T01:20:06.553Z,10.04
2023-05-08T01:22:43.670Z,10.06
2023-05-08T01:25:49.355Z,10.09
2023-05-08T01:28:47.262Z,10.09
2023-05-08T01:31:21.339Z,10.07
2023-05-08T01:34:12.281Z,10.02
2023-05-08T01:36:44.147Z,9.99
2023-05-08T01:39:32.070Z,9.91
2023-05-08T01:42:03.324Z,9.86
2023-05-08T01:44:39.510Z,9.85
2023-05-08T01:47:11.886Z,9.90
2023-05-08T01:49:45.377Z,9.94
2023-05-08T01:52:34.718Z,9.97
2023-05-08T01:55:10.286Z,9.99
2023-05-08T01:57:43.989Z,10.02
2023-05-08T02:00:12.716Z,10.05
2023-05-08T02:02:42.349Z,10.05
2023-05-08T02:05:12.307Z,10.07
2023-05-08T02:07:43.498Z,10.08
2023-05-08T02:10:14.072Z,10.12
2023-05-08T02:12:45.058Z,10.13
2023-05-08T02:15:15.447Z,10.12
2023-05-08T02:17:47.057Z,10.10
2023-05-08T02:20:16.527Z,10.12
2023-05-08T02:22:49.423Z,10.13
2023-05-08T02:25:19.289Z,10.10
2023-05-08T02:27:49.765Z,10.10
2023-05-08T02:30:22.250Z,10.09
2023-05-08T02:32:53.718Z,10.04
2023-05-08T02:35:25.380Z,10.00
2023-05-08T02:37:56.330Z,9.99
2023-05-08T02:40:28.265Z,9.99
2023-05-08T02:42:57.409Z,10.00
2023-05-08T02:45:32.957Z,10.01
2023-05-08T02:48:14.260Z,10.02
2023-05-08T02:50:51.579Z,10.02
2023-05-08T02:53:34.608Z,10.01
2023-05-08T02:56:12.500Z,10.02
2023-05-08T02:58:46.162Z,10.00
2023-05-08T03:01:30.344Z,9.99
2023-05-08T03:04:09.627Z,9.96
2023-05-08T03:06:45.895Z,9.90
2023-05-08T03:09:21.729Z,9.81
2023-05-08T03:11:58.503Z,9.73
2023-05-08T03:14:30.479Z,9.67
2023-05-08T03:17:01.287Z,9.64
2023-05-08T03:19:36.160Z,9.62
2023-05-08T03:22:09.060Z,9.61
2023-05-08T03:24:40.207Z,9.58
2023-05-08T03:27:10.033Z,9.54
2023-05-08T03:29:40.183Z,9.49
2023-05-08T03:32:09.703Z,9.42
2023-05-08T03:34:40.933Z,9.36
2023-05-08T03:37:09.334Z,9.30
2023-05-08T03:39:38.334Z,9.29
2023-05-08T03:42:06.746Z,9.26
2023-05-08T03:44:35.536Z,9.23
2023-05-08T03:47:05.839Z,9.17
2023-05-08T03:49:36.676Z,9.13
2023-05-08T03:52:05.898Z,9.11
2023-05-08T03:54:34.371Z,9.07
2023-05-08T03:57:02.769Z,9.02
2023-05-08T03:59:46.496Z,8.96
2023-05-08T04:02:21.203Z,8.90
2023-05-08T04:04:56.158Z,8.86
2023-05-08T04:07:29.156Z,8.83
2023-05-08T04:10:26.497Z,8.79
2023-05-08T04:13:14.679Z,8.75
2023-05-08T04:15:53.758Z,8.73
2023-05-08T04:18:28.505Z,8.73
2023-05-08T04:21:00.048Z,8.74
2023-05-08T04:23:30.193Z,8.75
2023-05-08T04:26:02.000Z,8.78
2023-05-08T04:28:31.514Z,8.80
2023-05-08T04:31:03.023Z,8.82
2023-05-08T04:33:31.693Z,8.85
2023-05-08T04:36:02.711Z,8.89
2023-05-08T04:38:37.916Z,8.91
2023-05-08T04:41:08.030Z,8.89
2023-05-08T04:43:37.270Z,8.89
2023-05-08T04:46:06.649Z,8.89
2023-05-08T04:48:35.515Z,8.90
2023-05-08T04:51:04.103Z,8.90
2023-05-08T04:53:32.863Z,8.90
2023-05-08T04:56:04.325Z,8.93
2023-05-08T04:58:33.050Z,8.96
2023-05-08T05:01:05.282Z,8.95
2023-05-08T05:03:34.345Z,8.96
2023-05-08T05:06:03.301Z,8.99
2023-05-08T05:08:31.618Z,8.98
2023-05-08T05:11:00.178Z,8.94
2023-05-08T05:13:30.742Z,8.92
2023-05-08T05:16:00.552Z,8.88
2023-05-08T05:18:29.128Z,8.87
2023-05-08T05:21:00.777Z,8.86
2023-05-08T05:23:30.712Z,8.88
2023-05-08T05:25:59.190Z,8.87
2023-05-08T05:28:28.281Z,8.84
2023-05-08T05:30:57.277Z,8.87
2023-05-08T05:33:26.168Z,8.88
2023-05-08T05:35:54.775Z,8.83
2023-05-08T05:38:24.082Z,8.84
2023-05-08T05:40:52.660Z,8.82
2023-05-08T05:43:20.959Z,8.81
2023-05-08T05:45:49.258Z,8.80
2023-05-08T05:48:17.811Z,8.77
2023-05-08T05:50:46.748Z,8.74
2023-05-08T05:53:16.008Z,8.67
2023-05-08T05:55:44.404Z,8.64
2023-05-08T05:58:12.784Z,8.61
2023-05-08T06:00:41.164Z,8.60
2023-05-08T06:03:11.040Z,8.59
2023-05-08T06:05:40.545Z,8.58
2023-05-08T06:08:08.772Z,8.60
2023-05-08T06:10:37.261Z,8.64
2023-05-08T06:13:05.636Z,8.64
2023-05-08T06:15:35.360Z,8.60
2023-05-08T06:18:04.798Z,8.59
2023-05-08T06:20:33.983Z,8.59
2023-05-08T06:23:02.662Z,8.60
2023-05-08T06:25:31.252Z,8.60
2023-05-08T06:28:00.062Z,8.60
2023-05-08T06:30:28.635Z,8.60
2023-05-08T06:32:57.366Z,8.57
2023-05-08T06:35:25.920Z,8.54
2023-05-08T06:37:54.422Z,8.53
2023-05-08T06:40:23.811Z,8.53
2023-05-08T06:42:52.196Z,8.52
2023-05-08T06:45:20.597Z,8.52
2023-05-08T06:47:49.038Z,8.50
2023-05-08T06:50:17.573Z,8.45
2023-05-08T06:52:45.952Z,8.47
2023-05-08T06:55:14.517Z,8.50
2023-05-08T06:57:43.117Z,8.52
2023-05-08T07:00:12.347Z,8.50
2023-05-08T07:02:40.827Z,8.50
2023-05-08T07:05:10.496Z,8.48
2023-05-08T07:07:39.011Z,8.49
2023-05-08T07:10:08.076Z,8.51
2023-05-08T07:12:36.280Z,8.52
2023-05-08T07:15:17.820Z,8.53
2023-05-08T07:17:54.224Z,8.59
2023-05-08T07:20:24.852Z,8.64
2023-05-08T07:22:53.285Z,8.67
2023-05-08T07:25:21.953Z,8.71
2023-05-08T07:27:50.791Z,8.79
2023-05-08T07:30:19.035Z,8.85
2023-05-08T07:32:47.744Z,8.89
2023-05-08T07:35:16.566Z,8.90
2023-05-08T07:37:45.616Z,8.96
2023-05-08T07:40:14.114Z,9.07
2023-05-08T07:42:43.178Z,9.18
2023-05-08T07:45:13.380Z,9.28
2023-05-08T07:47:53.505Z,9.34
2023-05-08T07:50:22.799Z,9.42
2023-05-08T07:52:51.442Z,9.47
2023-05-08T07:55:20.245Z,9.61
2023-05-08T07:57:48.651Z,9.76
2023-05-08T08:00:18.546Z,9.85
2023-05-08T08:02:47.111Z,9.90
2023-05-08T08:05:16.060Z,9.90
2023-05-08T08:07:44.648Z,9.91
2023-05-08T08:10:13.130Z,9.95
2023-05-08T08:12:41.250Z,10.02
2023-05-08T08:15:10.594Z,10.10
2023-05-08T08:17:39.031Z,10.15
2023-05-08T08:20:08.610Z,10.17
2023-05-08T08:22:37.713Z,10.18
2023-05-08T08:25:06.622Z,10.22
2023-05-08T08:27:34.780Z,10.23
2023-05-08T08:30:16.297Z,10.26
2023-05-08T08:32:46.685Z,10.31
2023-05-08T08:35:15.816Z,10.30
2023-05-08T08:37:45.504Z,10.32
2023-05-08T08:40:14.036Z,10.31
2023-05-08T08:42:42.202Z,10.29
2023-05-08T08:45:11.532Z,10.32
2023-05-08T08:47:43.583Z,10.37
2023-05-08T08:50:15.095Z,10.37
2023-05-08T08:52:59.059Z,10.34
2023-05-08T08:55:28.462Z,10.36
2023-05-08T08:58:21.792Z,10.38
2023-05-08T09:00:50.634Z,10.36
2023-05-08T09:03:25.146Z,10.36
2023-05-08T09:05:54.858Z,10.35
2023-05-08T09:08:23.767Z,10.36
2023-05-08T09:10:53.992Z,10.31
2023-05-08T09:13:22.886Z,10.24
2023-05-08T09:15:51.471Z,10.24
2023-05-08T09:18:20.052Z,10.19
2023-05-08T09:20:49.927Z,10.11
2023-05-08T09:23:22.721Z,10.09
2023-05-08T09:25:51.650Z,10.04
2023-05-08T09:28:25.228Z,9.99
2023-05-08T09:30:56.537Z,9.97
2023-05-08T09:33:27.243Z,10.01
2023-05-08T09:35:56.837Z,9.98
2023-05-08T09:38:40.187Z,9.98
2023-05-08T09:41:10.614Z,9.97
2023-05-08T09:43:39.463Z,10.06
2023-05-08T09:46:23.910Z,10.14
2023-05-08T09:48:54.913Z,10.25
2023-05-08T09:51:24.925Z,10.33
2023-05-08T09:53:54.725Z,10.37
2023-05-08T09:56:52.403Z,10.41
2023-05-08T09:59:34.069Z,10.48
2023-05-08T10:02:10.783Z,10.49
2023-05-08T10:04:39.423Z,10.42
2023-05-08T10:07:08.144Z,10.38
2023-05-08T10:09:49.729Z,10.40
2023-05-08T10:12:19.258Z,10.44
2023-05-08T10:14:47.523Z,10.48
2023-05-08T10:17:24.223Z,10.44
2023-05-08T10:19:59.439Z,10.35
2023-05-08T10:22:29.637Z,10.25
2023-05-08T10:24:59.310Z,10.21
2023-05-08T10:27:52.578Z,10.20
2023-05-08T10:30:25.976Z,10.17
2023-05-08T10:32:56.546Z,10.18
2023-05-08T10:35:25.627Z,10.19
2023-05-08T10:37:56.233Z,10.20
2023-05-08T10:40:24.616Z,10.23
2023-05-08T10:42:53.077Z,10.27
2023-05-08T10:45:21.760Z,10.31
2023-05-08T10:48:11.396Z,10.30
2023-05-08T10:51:18.292Z,10.28
2023-05-08T10:53:54.063Z,10.29
2023-05-08T10:56:27.465Z,10.29
2023-05-08T10:58:57.853Z,10.21
2023-05-08T11:01:27.187Z,10.11
2023-05-08T11:03:56.765Z,10.10
2023-05-08T11:06:55.247Z,10.10
2023-05-08T11:09:44.804Z,10.08
2023-05-08T11:12:34.126Z,10.10
2023-05-08T11:15:06.712Z,10.14
2023-05-08T11:17:35.229Z,10.15
2023-05-08T11:20:05.773Z,10.18
2023-05-08T11:22:35.729Z,10.15
2023-05-08T11:25:09.761Z,10.07
2023-05-08T11:27:39.610Z,10.06
2023-05-08T11:30:33.501Z,10.02
2023-05-08T11:33:04.915Z,9.94
2023-05-08T11:35:56.598Z,9.92
2023-05-08T11:38:36.830Z,9.99
2023-05-08T11:41:10.772Z,10.08
2023-05-08T11:43:39.120Z,10.08
2023-05-08T11:46:11.124Z,10.06
2023-05-08T11:48:39.951Z,10.07
2023-05-08T11:51:08.377Z,10.15
2023-05-08T11:53:37.719Z,10.20
2023-05-08T11:56:06.467Z,10.23
2023-05-08T11:58:34.853Z,10.26
2023-05-08T12:01:03.980Z,10.26
2023-05-08T12:03:33.003Z,10.22
2023-05-08T12:06:01.544Z,10.30
2023-05-08T12:08:30.050Z,10.45
2023-05-08T12:10:58.617Z,10.62
2023-05-08T12:13:29.353Z,10.74
2023-05-08T12:15:59.932Z,10.82
2023-05-08T12:18:30.726Z,10.91
2023-05-08T12:21:00.652Z,11.01
2023-05-08T12:23:29.947Z,11.09
2023-05-08T12:26:06.862Z,11.24
2023-05-08T12:28:40.935Z,11.40
2023-05-08T12:31:09.578Z,11.50
2023-05-08T12:33:38.820Z,11.59
2023-05-08T12:36:07.847Z,11.66
2023-05-08T12:38:36.484Z,11.75
2023-05-08T12:41:07.182Z,11.73
2023-05-08T12:43:36.686Z,11.68
2023-05-08T12:46:05.841Z,11.70
2023-05-08T12:48:34.907Z,11.65
2023-05-08T12:51:04.789Z,11.65
2023-05-08T12:53:33.624Z,11.63
2023-05-08T12:56:04.186Z,11.62
2023-05-08T12:58:34.502Z,11.57
2023-05-08T13:01:13.618Z,11.45
2023-05-08T13:03:42.612Z,11.33
2023-05-08T13:06:22.624Z,11.19
2023-05-08T13:08:55.395Z,11.19
2023-05-08T13:11:31.723Z,11.22
2023-05-08T13:14:00.627Z,11.17
2023-05-08T13:16:29.470Z,11.06
2023-05-08T13:18:58.092Z,11.00
2023-05-08T13:21:27.947Z,10.97
2023-05-08T13:23:57.296Z,11.05
2023-05-08T13:26:26.504Z,11.13
2023-05-08T13:28:56.484Z,11.16
2023-05-08T13:31:25.253Z,11.13
2023-05-08T13:33:53.566Z,11.03
2023-05-08T13:36:22.181Z,10.93
2023-05-08T13:38:54.352Z,10.99
2023-05-08T13:41:28.556Z,10.99
2023-05-08T13:43:57.483Z,10.96
2023-05-08T13:46:26.478Z,10.92
2023-05-08T13:48:54.950Z,10.89
2023-05-08T13:51:23.250Z,10.89
2023-05-08T13:53:51.538Z,10.84
2023-05-08T13:56:23.858Z,10.72
2023-05-08T13:58:52.983Z,10.63
2023-05-08T14:01:26.447Z,10.65
2023-05-08T14:03:55.926Z,10.64
2023-05-08T14:06:24.762Z,10.58
2023-05-08T14:08:55.431Z,10.50
2023-05-08T14:11:25.797Z,10.43
2023-05-08T14:13:57.798Z,10.37
2023-05-08T14:16:26.501Z,10.33
2023-05-08T14:18:55.024Z,10.36
2023-05-08T14:21:23.418Z,10.36
2023-05-08T14:23:51.786Z,10.32
2023-05-08T14:26:21.566Z,10.30
2023-05-08T14:28:49.790Z,10.29
2023-05-08T14:31:18.183Z,10.25
2023-05-08T14:33:46.445Z,10.22
2023-05-08T14:36:15.135Z,10.24
2023-05-08T14:38:46.817Z,10.25
2023-05-08T14:41:15.484Z,10.27
2023-05-08T14:43:44.179Z,10.29
2023-05-08T14:46:12.475Z,10.31
2023-05-08T14:48:41.048Z,10.30
2023-05-08T14:51:09.225Z,10.24
2023-05-08T14:53:37.554Z,10.19
2023-05-08T14:56:06.886Z,10.14
2023-05-08T14:58:35.315Z,10.06
2023-05-08T15:01:03.800Z,9.96
2023-05-08T15:03:32.636Z,9.87
2023-05-08T15:06:01.204Z,9.78
2023-05-08T15:08:29.863Z,9.70
2023-05-08T15:10:58.862Z,9.62
2023-05-08T15:13:27.395Z,9.59
2023-05-08T15:15:56.505Z,9.57
2023-05-08T15:18:28.723Z,9.56
2023-05-08T15:20:58.445Z,9.55
2023-05-08T15:23:27.236Z,9.50
2023-05-08T15:25:55.717Z,9.44
2023-05-08T15:28:24.247Z,9.39
2023-05-08T15:30:53.103Z,9.33
2023-05-08T15:33:23.302Z,9.28
2023-05-08T15:35:51.838Z,9.20
2023-05-08T15:38:20.205Z,9.15
2023-05-08T15:40:51.225Z,9.09
2023-05-08T15:43:19.739Z,9.03
2023-05-08T15:45:48.350Z,8.97
2023-05-08T15:48:16.705Z,8.91
2023-05-08T15:50:45.092Z,8.86
2023-05-08T15:53:13.598Z,8.85
2023-05-08T15:55:42.418Z,8.83
2023-05-08T15:58:10.660Z,8.81
2023-05-08T16:00:44.884Z,8.80
2023-05-08T16:03:14.421Z,8.78
2023-05-08T16:05:43.640Z,8.77
2023-05-08T16:08:13.158Z,8.73
2023-05-08T16:10:44.355Z,8.69
2023-05-08T16:13:12.922Z,8.67
2023-05-08T16:15:45.142Z,8.67
2023-05-08T16:18:13.609Z,8.65
2023-05-08T16:20:42.495Z,8.64
2023-05-08T16:23:11.087Z,8.63
2023-05-08T16:25:39.576Z,8.61
2023-05-08T16:28:07.854Z,8.59
2023-05-08T16:30:36.352Z,8.58
2023-05-08T16:33:04.818Z,8.56
2023-05-08T16:35:33.652Z,8.55
2023-05-08T16:38:03.253Z,8.54
2023-05-08T16:40:31.924Z,8.53
2023-05-08T16:43:01.119Z,8.54
2023-05-08T16:45:29.819Z,8.54
2023-05-08T16:47:58.548Z,8.53
2023-05-08T16:50:27.553Z,8.52
2023-05-08T16:52:57.733Z,8.53
2023-05-08T16:55:26.425Z,8.52
2023-05-08T16:57:54.955Z,8.55
2023-05-08T17:00:23.796Z,8.59
2023-05-08T17:02:52.405Z,8.64
2023-05-08T17:05:21.111Z,8.67
2023-05-08T17:07:51.222Z,8.67
2023-05-08T17:10:19.499Z,8.69
2023-05-08T17:12:49.202Z,8.73
2023-05-08T17:15:17.704Z,8.72
2023-05-08T17:17:47.969Z,8.77
2023-05-08T17:20:17.238Z,8.80
2023-05-08T17:22:45.813Z,8.82
2023-05-08T17:25:18.495Z,8.83
2023-05-08T17:27:47.084Z,8.84
2023-05-08T17:30:17.621Z,8.86
2023-05-08T17:32:46.473Z,8.87
2023-05-08T17:35:14.661Z,8.90
2023-05-08T17:37:43.124Z,8.92
2023-05-08T17:40:12.118Z,8.92
2023-05-08T17:42:40.363Z,8.93
2023-05-08T17:45:09.016Z,8.96
2023-05-08T17:47:38.521Z,8.97
2023-05-08T17:50:09.364Z,8.98
2023-05-08T17:52:40.461Z,8.98
2023-05-08T17:55:10.099Z,8.99
2023-05-08T17:57:38.648Z,9.00
2023-05-08T18:00:07.994Z,8.99
2023-05-08T18:02:36.933Z,8.98
2023-05-08T18:05:05.952Z,8.96
2023-05-08T18:07:34.133Z,8.94
2023-05-08T18:10:02.451Z,8.92
2023-05-08T18:12:34.999Z,8.90
2023-05-08T18:15:10.215Z,8.88
2023-05-08T18:17:38.454Z,8.82
2023-05-08T18:20:09.487Z,8.76
2023-05-08T18:22:37.852Z,8.72
2023-05-08T18:25:10.538Z,8.61
2023-05-08T18:27:43.018Z,8.44
2023-05-08T18:30:12.487Z,8.36
2023-05-08T18:32:41.234Z,8.30
2023-05-08T18:35:09.599Z,8.31
2023-05-08T18:37:38.394Z,8.26
2023-05-08T18:40:08.189Z,8.17
2023-05-08T18:42:37.091Z,8.13
2023-05-08T18:45:06.187Z,8.15
2023-05-08T18:47:34.390Z,8.11
2023-05-08T18:50:05.804Z,8.04
2023-05-08T18:52:34.528Z,7.96
2023-05-08T18:55:03.229Z,7.94
2023-05-08T18:57:31.914Z,7.95
2023-05-08T19:00:04.489Z,7.94
2023-05-08T19:02:33.415Z,7.90
2023-05-08T19:05:02.281Z,7.87
2023-05-08T19:07:30.668Z,7.84
2023-05-08T19:09:59.284Z,7.81
2023-05-08T19:12:27.546Z,7.77
2023-05-08T19:14:56.126Z,7.73
2023-05-08T19:17:27.704Z,7.72
2023-05-08T19:19:56.307Z,7.74
2023-05-08T19:22:24.592Z,7.80
2023-05-08T19:24:53.123Z,7.86
2023-05-08T19:27:21.424Z,7.95
2023-05-08T19:29:49.654Z,7.99
2023-05-08T19:32:17.989Z,8.03
2023-05-08T19:34:46.447Z,8.04
2023-05-08T19:37:20.474Z,8.04
2023-05-08T19:39:49.601Z,8.02
2023-05-08T19:42:18.182Z,8.03
2023-05-08T19:44:46.541Z,8.05
2023-05-08T19:47:15.461Z,8.07
2023-05-08T19:49:44.149Z,8.07
2023-05-08T19:52:12.870Z,8.06
2023-05-08T19:54:41.268Z,8.07
2023-05-08T19:57:09.716Z,8.08
2023-05-08T19:59:40.451Z,8.07
2023-05-08T20:02:08.528Z,8.05
2023-05-08T20:04:57.485Z,8.01
2023-05-08T20:07:26.480Z,7.98
2023-05-08T20:09:55.018Z,7.96
2023-05-08T20:12:26.407Z,7.99
2023-05-08T20:14:55.320Z,8.00
2023-05-08T20:17:24.058Z,8.01
2023-05-08T20:19:52.408Z,8.01
2023-05-08T20:22:21.382Z,8.03
2023-05-08T20:24:49.475Z,8.05
2023-05-08T20:27:18.045Z,8.05
2023-05-08T20:29:49.821Z,8.05
2023-05-08T20:32:19.469Z,8.09
2023-05-08T20:34:48.343Z,8.14
2023-05-08T20:37:17.190Z,8.16
2023-05-08T20:39:45.943Z,8.11
2023-05-08T20:42:14.215Z,8.06
2023-05-08T20:44:42.385Z,8.06
2023-05-08T20:47:10.822Z,8.05
2023-05-08T20:49:39.485Z,8.03
2023-05-08T20:52:07.945Z,8.00
2023-05-08T20:54:36.733Z,8.02
2023-05-08T20:57:05.139Z,8.03
2023-05-08T20:59:33.501Z,8.05
2023-05-08T21:02:01.905Z,8.05
2023-05-08T21:04:30.623Z,8.07
2023-05-08T21:06:59.176Z,8.06
2023-05-08T21:09:27.198Z,8.04
2023-05-08T21:11:55.959Z,8.04
2023-05-08T21:14:24.325Z,8.07
2023-05-08T21:16:54.325Z,8.08
2023-05-08T21:19:24.021Z,8.12
2023-05-08T21:21:52.873Z,8.15
2023-05-08T21:24:21.872Z,8.17
2023-05-08T21:26:52.721Z,8.22
2023-05-08T21:29:21.488Z,8.24
2023-05-08T21:31:50.069Z,8.22
2023-05-08T21:34:21.430Z,8.19
2023-05-08T21:36:49.925Z,8.19
2023-05-08T21:39:19.129Z,8.20
2023-05-08T21:41:48.194Z,8.23
2023-05-08T21:44:16.620Z,8.25
2023-05-08T21:46:45.236Z,8.27
2023-05-08T21:49:13.603Z,8.26
2023-05-08T21:51:42.122Z,8.24
2023-05-08T21:54:10.777Z,8.21
2023-05-08T21:56:39.901Z,8.18
2023-05-08T21:59:08.270Z,8.20
2023-05-08T22:01:36.523Z,8.24
2023-05-08T22:04:05.220Z,8.28
2023-05-08T22:06:33.499Z,8.29
2023-05-08T22:09:01.996Z,8.31
2023-05-08T22:11:31.719Z,8.33
2023-05-08T22:13:59.944Z,8.35
2023-05-08T22:16:29.347Z,8.36
2023-05-08T22:18:57.612Z,8.37
2023-05-08T22:21:29.751Z,8.36
2023-05-08T22:23:57.950Z,8.38
2023-05-08T22:26:26.542Z,8.39
2023-05-08T22:28:55.573Z,8.37
2023-05-08T22:31:24.061Z,8.37
2023-05-08T22:33:52.280Z,8.38
2023-05-08T22:36:22.857Z,8.42
2023-05-08T22:38:51.500Z,8.41
2023-05-08T22:41:19.780Z,8.39
2023-05-08T22:43:48.172Z,8.36
2023-05-08T22:46:16.811Z,8.32
2023-05-08T22:48:45.963Z,8.32
2023-05-08T22:51:14.361Z,8.34
2023-05-08T22:53:42.556Z,8.34
2023-05-08T22:56:11.130Z,8.32
2023-05-08T22:58:39.452Z,8.31
2023-05-08T23:01:08.109Z,8.29
2023-05-08T23:03:41.862Z,8.28
2023-05-08T23:06:13.661Z,8.24
2023-05-08T23:08:45.143Z,8.21
2023-05-08T23:11:16.980Z,8.19
2023-05-08T23:13:45.586Z,8.16
2023-05-08T23:16:16.937Z,8.12
2023-05-08T23:18:45.616Z,8.11
2023-05-08T23:21:14.106Z,8.10
2023-05-08T23:23:42.177Z,8.10
2023-05-08T23:26:10.662Z,8.11
2023-05-08T23:28:38.840Z,8.12
2023-05-08T23:31:07.800Z,8.14
2023-05-08T23:33:36.528Z,8.15
2023-05-08T23:36:06.135Z,8.13
2023-05-08T23:38:34.623Z,8.18
2023-05-08T23:41:03.137Z,8.20
2023-05-08T23:43:31.604Z,8.19
2023-05-08T23:46:00.058Z,8.22
2023-05-08T23:48:28.545Z,8.24
2023-05-08T23:50:57.081Z,8.25
2023-05-08T23:53:25.215Z,8.26
2023-05-08T23:55:53.733Z,8.26
2023-05-08T23:58:22.119Z,8.21
